sensor_id;sensor_type;location;lat;lon;timestamp;P1;durP1;ratioP1;P2;durP2;ratioP2
10896;SDS011;5501;51.176;6.470;2023-06-22T00:03:01;3.42;;;3.13;;
10896;SDS011;5501;51.176;6.470;2023-06-22T00:08:03;3.80;;;2.97;;
10896;SDS011;5501;51.176;6.470;2023-06-22T00:13:08;4.38;;;3.97;;
10896;SDS011;5501;51.176;6.470;2023-06-22T00:18:10;6.20;;;3.72;;
10896;SDS011;5501;51.176;6.470;2023-06-22T00:23:14;7.22;;;3.65;;
10896;SDS011;5501;51.176;6.470;2023-06-22T00:28:18;5.95;;;3.45;;
10896;SDS011;5501;51.176;6.470;2023-06-22T00:33:20;4.25;;;3.85;;
10896;SDS011;5501;51.176;6.470;2023-06-22T00:38:21;4.25;;;3.63;;
10896;SDS011;5501;51.176;6.470;2023-06-22T00:43:23;3.28;;;2.97;;
10896;SDS011;5501;51.176;6.470;2023-06-22T00:48:24;7.60;;;3.78;;
10896;SDS011;5501;51.176;6.470;2023-06-22T00:53:26;3.88;;;3.40;;
10896;SDS011;5501;51.176;6.470;2023-06-22T00:58:28;4.47;;;3.75;;
10896;SDS011;5501;51.176;6.470;2023-06-22T01:03:30;8.98;;;3.85;;
10896;SDS011;5501;51.176;6.470;2023-06-22T01:08:36;7.80;;;4.07;;
10896;SDS011;5501;51.176;6.470;2023-06-22T01:13:53;7.97;;;4.15;;
10896;SDS011;5501;51.176;6.470;2023-06-22T01:19:01;5.20;;;3.67;;
10896;SDS011;5501;51.176;6.470;2023-06-22T01:24:17;8.07;;;4.13;;
10896;SDS011;5501;51.176;6.470;2023-06-22T01:29:29;7.25;;;4.13;;
10896;SDS011;5501;51.176;6.470;2023-06-22T01:34:34;5.20;;;4.05;;
10896;SDS011;5501;51.176;6.470;2023-06-22T01:39:38;6.13;;;4.28;;
10896;SDS011;5501;51.176;6.470;2023-06-22T01:44:40;5.40;;;4.00;;
10896;SDS011;5501;51.176;6.470;2023-06-22T01:49:43;5.80;;;3.88;;
10896;SDS011;5501;51.176;6.470;2023-06-22T01:54:45;4.82;;;3.70;;
10896;SDS011;5501;51.176;6.470;2023-06-22T01:59:53;5.38;;;4.15;;
10896;SDS011;5501;51.176;6.470;2023-06-22T02:05:01;8.00;;;4.88;;
10896;SDS011;5501;51.176;6.470;2023-06-22T02:10:07;5.57;;;3.90;;
10896;SDS011;5501;51.176;6.470;2023-06-22T02:15:10;5.57;;;4.18;;
10896;SDS011;5501;51.176;6.470;2023-06-22T02:20:14;6.72;;;4.47;;
10896;SDS011;5501;51.176;6.470;2023-06-22T02:25:16;7.38;;;4.50;;
10896;SDS011;5501;51.176;6.470;2023-06-22T02:30:19;8.02;;;4.50;;
10896;SDS011;5501;51.176;6.470;2023-06-22T02:35:21;5.88;;;4.32;;
10896;SDS011;5501;51.176;6.470;2023-06-22T02:40:22;7.50;;;4.55;;
10896;SDS011;5501;51.176;6.470;2023-06-22T02:45:24;5.50;;;4.25;;
10896;SDS011;5501;51.176;6.470;2023-06-22T02:50:26;9.27;;;5.10;;
10896;SDS011;5501;51.176;6.470;2023-06-22T02:55:28;11.98;;;4.80;;
10896;SDS011;5501;51.176;6.470;2023-06-22T03:00:32;6.22;;;4.45;;
10896;SDS011;5501;51.176;6.470;2023-06-22T03:05:34;7.95;;;4.65;;
10896;SDS011;5501;51.176;6.470;2023-06-22T03:10:36;5.88;;;4.72;;
10896;SDS011;5501;51.176;6.470;2023-06-22T03:15:38;9.75;;;5.78;;
10896;SDS011;5501;51.176;6.470;2023-06-22T03:20:40;8.52;;;5.57;;
10896;SDS011;5501;51.176;6.470;2023-06-22T03:25:43;7.65;;;5.60;;
10896;SDS011;5501;51.176;6.470;2023-06-22T03:30:48;6.53;;;5.65;;
10896;SDS011;5501;51.176;6.470;2023-06-22T03:35:51;9.70;;;5.70;;
10896;SDS011;5501;51.176;6.470;2023-06-22T03:40:52;8.60;;;6.50;;
10896;SDS011;5501;51.176;6.470;2023-06-22T03:45:55;7.88;;;5.90;;
10896;SDS011;5501;51.176;6.470;2023-06-22T03:50:57;8.05;;;5.93;;
10896;SDS011;5501;51.176;6.470;2023-06-22T03:55:59;8.40;;;5.70;;
10896;SDS011;5501;51.176;6.470;2023-06-22T04:01:01;10.23;;;5.90;;
10896;SDS011;5501;51.176;6.470;2023-06-22T04:06:02;9.23;;;5.97;;
10896;SDS011;5501;51.176;6.470;2023-06-22T04:11:04;11.20;;;7.32;;
10896;SDS011;5501;51.176;6.470;2023-06-22T04:16:06;9.65;;;6.00;;
10896;SDS011;5501;51.176;6.470;2023-06-22T04:21:07;7.53;;;5.55;;
10896;SDS011;5501;51.176;6.470;2023-06-22T04:26:09;9.18;;;5.85;;
10896;SDS011;5501;51.176;6.470;2023-06-22T04:31:10;9.63;;;5.85;;
10896;SDS011;5501;51.176;6.470;2023-06-22T04:36:13;11.32;;;6.13;;
10896;SDS011;5501;51.176;6.470;2023-06-22T04:41:15;10.85;;;6.22;;
10896;SDS011;5501;51.176;6.470;2023-06-22T04:46:24;9.63;;;6.10;;
10896;SDS011;5501;51.176;6.470;2023-06-22T04:51:26;15.55;;;6.90;;
10896;SDS011;5501;51.176;6.470;2023-06-22T04:56:32;11.80;;;6.60;;
10896;SDS011;5501;51.176;6.470;2023-06-22T05:01:35;11.45;;;6.75;;
10896;SDS011;5501;51.176;6.470;2023-06-22T05:06:36;13.63;;;7.65;;
10896;SDS011;5501;51.176;6.470;2023-06-22T05:11:41;11.90;;;7.50;;
10896;SDS011;5501;51.176;6.470;2023-06-22T05:16:42;11.88;;;7.05;;
10896;SDS011;5501;51.176;6.470;2023-06-22T05:21:44;12.23;;;7.25;;
10896;SDS011;5501;51.176;6.470;2023-06-22T05:26:50;12.45;;;7.93;;
10896;SDS011;5501;51.176;6.470;2023-06-22T05:31:51;12.70;;;7.63;;
10896;SDS011;5501;51.176;6.470;2023-06-22T05:36:53;14.68;;;8.32;;
10896;SDS011;5501;51.176;6.470;2023-06-22T05:41:55;11.45;;;8.23;;
10896;SDS011;5501;51.176;6.470;2023-06-22T05:46:57;18.23;;;8.43;;
10896;SDS011;5501;51.176;6.470;2023-06-22T05:51:59;10.73;;;7.63;;
10896;SDS011;5501;51.176;6.470;2023-06-22T05:57:01;9.77;;;6.63;;
10896;SDS011;5501;51.176;6.470;2023-06-22T06:02:03;11.70;;;8.05;;
10896;SDS011;5501;51.176;6.470;2023-06-22T06:07:04;14.70;;;8.25;;
10896;SDS011;5501;51.176;6.470;2023-06-22T06:12:06;9.30;;;7.80;;
10896;SDS011;5501;51.176;6.470;2023-06-22T06:17:08;11.75;;;8.50;;
10896;SDS011;5501;51.176;6.470;2023-06-22T06:22:10;11.13;;;8.10;;
10896;SDS011;5501;51.176;6.470;2023-06-22T06:27:11;14.18;;;7.43;;
10896;SDS011;5501;51.176;6.470;2023-06-22T06:32:13;12.35;;;6.85;;
10896;SDS011;5501;51.176;6.470;2023-06-22T06:37:14;12.43;;;7.55;;
10896;SDS011;5501;51.176;6.470;2023-06-22T06:42:16;8.65;;;7.00;;
10896;SDS011;5501;51.176;6.470;2023-06-22T06:47:19;11.10;;;6.97;;
10896;SDS011;5501;51.176;6.470;2023-06-22T06:52:21;8.85;;;6.53;;
10896;SDS011;5501;51.176;6.470;2023-06-22T06:57:23;9.90;;;7.43;;
10896;SDS011;5501;51.176;6.470;2023-06-22T07:02:25;13.88;;;7.93;;
10896;SDS011;5501;51.176;6.470;2023-06-22T07:07:29;12.63;;;8.75;;
10896;SDS011;5501;51.176;6.470;2023-06-22T07:12:30;12.82;;;9.07;;
10896;SDS011;5501;51.176;6.470;2023-06-22T07:17:32;12.40;;;8.75;;
10896;SDS011;5501;51.176;6.470;2023-06-22T07:22:34;13.25;;;9.90;;
10896;SDS011;5501;51.176;6.470;2023-06-22T07:27:36;14.02;;;10.02;;
10896;SDS011;5501;51.176;6.470;2023-06-22T07:32:39;13.15;;;10.98;;
10896;SDS011;5501;51.176;6.470;2023-06-22T07:37:41;13.50;;;10.48;;
10896;SDS011;5501;51.176;6.470;2023-06-22T07:42:43;16.95;;;11.98;;
10896;SDS011;5501;51.176;6.470;2023-06-22T07:47:45;16.42;;;11.57;;
10896;SDS011;5501;51.176;6.470;2023-06-22T07:52:47;12.35;;;10.60;;
10896;SDS011;5501;51.176;6.470;2023-06-22T07:57:49;16.15;;;11.23;;
10896;SDS011;5501;51.176;6.470;2023-06-22T08:02:53;12.80;;;10.40;;
10896;SDS011;5501;51.176;6.470;2023-06-22T08:07:54;13.15;;;9.25;;
10896;SDS011;5501;51.176;6.470;2023-06-22T08:12:57;11.35;;;8.98;;
10896;SDS011;5501;51.176;6.470;2023-06-22T08:17:58;12.35;;;9.30;;
10896;SDS011;5501;51.176;6.470;2023-06-22T08:23:01;13.32;;;8.75;;
10896;SDS011;5501;51.176;6.470;2023-06-22T08:28:07;10.70;;;9.40;;
10896;SDS011;5501;51.176;6.470;2023-06-22T08:33:09;10.90;;;9.15;;
10896;SDS011;5501;51.176;6.470;2023-06-22T08:38:15;10.85;;;8.50;;
10896;SDS011;5501;51.176;6.470;2023-06-22T08:43:19;9.70;;;7.20;;
10896;SDS011;5501;51.176;6.470;2023-06-22T08:48:21;11.30;;;8.25;;
10896;SDS011;5501;51.176;6.470;2023-06-22T08:53:23;12.23;;;8.77;;
10896;SDS011;5501;51.176;6.470;2023-06-22T08:58:24;13.25;;;8.80;;
10896;SDS011;5501;51.176;6.470;2023-06-22T09:03:26;12.02;;;8.80;;
10896;SDS011;5501;51.176;6.470;2023-06-22T09:08:28;9.93;;;7.57;;
10896;SDS011;5501;51.176;6.470;2023-06-22T09:13:30;9.43;;;8.52;;
10896;SDS011;5501;51.176;6.470;2023-06-22T09:18:33;10.57;;;7.75;;
10896;SDS011;5501;51.176;6.470;2023-06-22T09:23:35;7.90;;;7.00;;
10896;SDS011;5501;51.176;6.470;2023-06-22T09:28:37;7.53;;;6.60;;
10896;SDS011;5501;51.176;6.470;2023-06-22T09:33:39;10.80;;;7.72;;
10896;SDS011;5501;51.176;6.470;2023-06-22T09:38:41;7.65;;;4.78;;
10896;SDS011;5501;51.176;6.470;2023-06-22T09:43:43;6.45;;;4.95;;
10896;SDS011;5501;51.176;6.470;2023-06-22T09:48:44;5.45;;;4.85;;
10896;SDS011;5501;51.176;6.470;2023-06-22T09:53:46;6.88;;;4.78;;
10896;SDS011;5501;51.176;6.470;2023-06-22T09:58:47;5.32;;;4.70;;
10896;SDS011;5501;51.176;6.470;2023-06-22T10:03:53;6.13;;;4.85;;
10896;SDS011;5501;51.176;6.470;2023-06-22T10:08:58;5.80;;;4.40;;
10896;SDS011;5501;51.176;6.470;2023-06-22T10:13:59;6.10;;;4.32;;
10896;SDS011;5501;51.176;6.470;2023-06-22T10:19:01;7.18;;;4.80;;
10896;SDS011;5501;51.176;6.470;2023-06-22T10:24:02;5.20;;;4.00;;
10896;SDS011;5501;51.176;6.470;2023-06-22T10:29:07;4.70;;;4.22;;
10896;SDS011;5501;51.176;6.470;2023-06-22T10:34:17;7.07;;;4.45;;
10896;SDS011;5501;51.176;6.470;2023-06-22T10:39:19;5.13;;;4.35;;
10896;SDS011;5501;51.176;6.470;2023-06-22T10:44:20;5.88;;;4.53;;
10896;SDS011;5501;51.176;6.470;2023-06-22T10:49:22;6.45;;;5.18;;
10896;SDS011;5501;51.176;6.470;2023-06-22T10:54:23;5.45;;;4.65;;
10896;SDS011;5501;51.176;6.470;2023-06-22T10:59:25;6.45;;;5.80;;
10896;SDS011;5501;51.176;6.470;2023-06-22T11:04:27;8.43;;;6.65;;
10896;SDS011;5501;51.176;6.470;2023-06-22T11:09:29;10.90;;;6.68;;
10896;SDS011;5501;51.176;6.470;2023-06-22T11:14:30;8.27;;;7.15;;
10896;SDS011;5501;51.176;6.470;2023-06-22T11:19:32;9.57;;;7.85;;
10896;SDS011;5501;51.176;6.470;2023-06-22T11:24:33;11.43;;;8.43;;
10896;SDS011;5501;51.176;6.470;2023-06-22T11:29:35;10.88;;;9.23;;
10896;SDS011;5501;51.176;6.470;2023-06-22T11:34:38;11.63;;;9.52;;
10896;SDS011;5501;51.176;6.470;2023-06-22T11:39:41;13.07;;;11.48;;
10896;SDS011;5501;51.176;6.470;2023-06-22T11:44:53;16.00;;;13.52;;
10896;SDS011;5501;51.176;6.470;2023-06-22T11:49:57;16.50;;;13.63;;
10896;SDS011;5501;51.176;6.470;2023-06-22T11:54:58;20.60;;;14.30;;
10896;SDS011;5501;51.176;6.470;2023-06-22T12:00:00;27.63;;;16.35;;
10896;SDS011;5501;51.176;6.470;2023-06-22T12:05:07;23.48;;;17.15;;
10896;SDS011;5501;51.176;6.470;2023-06-22T12:10:09;19.92;;;15.32;;
10896;SDS011;5501;51.176;6.470;2023-06-22T12:15:11;18.10;;;14.15;;
10896;SDS011;5501;51.176;6.470;2023-06-22T12:20:12;15.93;;;12.52;;
10896;SDS011;5501;51.176;6.470;2023-06-22T12:25:14;15.32;;;12.07;;
10896;SDS011;5501;51.176;6.470;2023-06-22T12:30:16;16.58;;;12.88;;
10896;SDS011;5501;51.176;6.470;2023-06-22T12:35:17;14.60;;;11.73;;
10896;SDS011;5501;51.176;6.470;2023-06-22T12:40:19;16.08;;;12.27;;
10896;SDS011;5501;51.176;6.470;2023-06-22T12:45:21;18.20;;;12.93;;
10896;SDS011;5501;51.176;6.470;2023-06-22T12:50:23;17.48;;;13.95;;
10896;SDS011;5501;51.176;6.470;2023-06-22T12:55:24;16.88;;;13.10;;
10896;SDS011;5501;51.176;6.470;2023-06-22T13:00:26;18.48;;;13.13;;
10896;SDS011;5501;51.176;6.470;2023-06-22T13:05:28;20.73;;;15.32;;
10896;SDS011;5501;51.176;6.470;2023-06-22T13:10:29;19.05;;;13.88;;
10896;SDS011;5501;51.176;6.470;2023-06-22T13:15:31;17.48;;;14.27;;
10896;SDS011;5501;51.176;6.470;2023-06-22T13:20:34;19.35;;;16.38;;
10896;SDS011;5501;51.176;6.470;2023-06-22T13:25:35;23.75;;;16.13;;
10896;SDS011;5501;51.176;6.470;2023-06-22T13:30:37;20.42;;;16.35;;
10896;SDS011;5501;51.176;6.470;2023-06-22T13:35:39;21.25;;;16.75;;
10896;SDS011;5501;51.176;6.470;2023-06-22T13:40:40;19.05;;;15.68;;
10896;SDS011;5501;51.176;6.470;2023-06-22T13:45:42;20.80;;;15.60;;
10896;SDS011;5501;51.176;6.470;2023-06-22T13:50:44;20.58;;;15.07;;
10896;SDS011;5501;51.176;6.470;2023-06-22T13:55:46;22.05;;;16.80;;
10896;SDS011;5501;51.176;6.470;2023-06-22T14:00:49;23.83;;;16.73;;
10896;SDS011;5501;51.176;6.470;2023-06-22T14:05:50;20.80;;;16.02;;
10896;SDS011;5501;51.176;6.470;2023-06-22T14:10:55;23.33;;;16.33;;
10896;SDS011;5501;51.176;6.470;2023-06-22T14:15:56;25.08;;;17.35;;
10896;SDS011;5501;51.176;6.470;2023-06-22T14:20:58;31.33;;;20.85;;
10896;SDS011;5501;51.176;6.470;2023-06-22T14:26:00;23.95;;;17.38;;
10896;SDS011;5501;51.176;6.470;2023-06-22T14:31:01;23.92;;;17.13;;
10896;SDS011;5501;51.176;6.470;2023-06-22T14:36:03;25.25;;;17.10;;
10896;SDS011;5501;51.176;6.470;2023-06-22T14:41:05;22.30;;;18.00;;
10896;SDS011;5501;51.176;6.470;2023-06-22T14:46:15;24.58;;;18.65;;
10896;SDS011;5501;51.176;6.470;2023-06-22T14:51:18;27.08;;;18.77;;
10896;SDS011;5501;51.176;6.470;2023-06-22T14:56:20;21.90;;;18.23;;
10896;SDS011;5501;51.176;6.470;2023-06-22T15:01:21;24.73;;;19.25;;
10896;SDS011;5501;51.176;6.470;2023-06-22T15:06:23;22.98;;;16.58;;
10896;SDS011;5501;51.176;6.470;2023-06-22T15:11:25;24.27;;;17.92;;
10896;SDS011;5501;51.176;6.470;2023-06-22T15:16:26;20.90;;;17.65;;
10896;SDS011;5501;51.176;6.470;2023-06-22T15:21:28;23.15;;;17.30;;
10896;SDS011;5501;51.176;6.470;2023-06-22T15:26:29;23.63;;;16.92;;
10896;SDS011;5501;51.176;6.470;2023-06-22T15:31:31;26.02;;;18.80;;
10896;SDS011;5501;51.176;6.470;2023-06-22T15:36:34;23.52;;;18.73;;
10896;SDS011;5501;51.176;6.470;2023-06-22T15:41:36;27.58;;;20.10;;
10896;SDS011;5501;51.176;6.470;2023-06-22T15:46:40;30.65;;;21.55;;
10896;SDS011;5501;51.176;6.470;2023-06-22T15:51:43;28.70;;;21.55;;
10896;SDS011;5501;51.176;6.470;2023-06-22T15:56:45;31.05;;;23.08;;
10896;SDS011;5501;51.176;6.470;2023-06-22T16:01:46;33.90;;;24.52;;
10896;SDS011;5501;51.176;6.470;2023-06-22T16:06:48;36.05;;;24.15;;
10896;SDS011;5501;51.176;6.470;2023-06-22T16:11:52;31.70;;;23.70;;
10896;SDS011;5501;51.176;6.470;2023-06-22T16:16:55;31.15;;;22.45;;
10896;SDS011;5501;51.176;6.470;2023-06-22T16:21:56;32.95;;;23.70;;
10896;SDS011;5501;51.176;6.470;2023-06-22T16:26:58;31.65;;;24.40;;
10896;SDS011;5501;51.176;6.470;2023-06-22T16:31:59;31.67;;;23.42;;
10896;SDS011;5501;51.176;6.470;2023-06-22T16:37:01;35.42;;;23.38;;
10896;SDS011;5501;51.176;6.470;2023-06-22T16:42:02;30.88;;;23.30;;
10896;SDS011;5501;51.176;6.470;2023-06-22T16:47:04;33.85;;;23.33;;
10896;SDS011;5501;51.176;6.470;2023-06-22T16:52:06;33.70;;;24.55;;
10896;SDS011;5501;51.176;6.470;2023-06-22T16:57:08;34.42;;;23.90;;
10896;SDS011;5501;51.176;6.470;2023-06-22T17:02:16;34.55;;;26.73;;
10896;SDS011;5501;51.176;6.470;2023-06-22T17:07:20;34.25;;;25.30;;
10896;SDS011;5501;51.176;6.470;2023-06-22T17:12:26;35.55;;;27.52;;
10896;SDS011;5501;51.176;6.470;2023-06-22T17:17:28;39.38;;;26.70;;
10896;SDS011;5501;51.176;6.470;2023-06-22T17:22:31;36.95;;;27.73;;
10896;SDS011;5501;51.176;6.470;2023-06-22T17:27:36;40.83;;;29.25;;
10896;SDS011;5501;51.176;6.470;2023-06-22T17:32:38;39.00;;;28.30;;
10896;SDS011;5501;51.176;6.470;2023-06-22T17:37:46;38.35;;;27.88;;
10896;SDS011;5501;51.176;6.470;2023-06-22T17:42:51;33.72;;;26.67;;
10896;SDS011;5501;51.176;6.470;2023-06-22T17:47:52;30.48;;;25.27;;
10896;SDS011;5501;51.176;6.470;2023-06-22T17:52:54;33.63;;;26.13;;
10896;SDS011;5501;51.176;6.470;2023-06-22T17:57:59;35.50;;;25.27;;
10896;SDS011;5501;51.176;6.470;2023-06-22T18:03:00;32.83;;;24.20;;
10896;SDS011;5501;51.176;6.470;2023-06-22T18:08:03;29.17;;;20.98;;
10896;SDS011;5501;51.176;6.470;2023-06-22T18:13:06;21.92;;;17.35;;
10896;SDS011;5501;51.176;6.470;2023-06-22T18:18:08;24.55;;;16.80;;
10896;SDS011;5501;51.176;6.470;2023-06-22T18:23:10;19.13;;;15.23;;
10896;SDS011;5501;51.176;6.470;2023-06-22T18:28:12;21.48;;;13.98;;
10896;SDS011;5501;51.176;6.470;2023-06-22T18:33:15;18.95;;;12.60;;
10896;SDS011;5501;51.176;6.470;2023-06-22T18:38:17;21.60;;;14.05;;
10896;SDS011;5501;51.176;6.470;2023-06-22T18:43:20;18.27;;;15.27;;
10896;SDS011;5501;51.176;6.470;2023-06-22T18:48:23;22.23;;;15.82;;
10896;SDS011;5501;51.176;6.470;2023-06-22T18:53:27;19.95;;;14.70;;
10896;SDS011;5501;51.176;6.470;2023-06-22T18:58:30;22.70;;;17.23;;
10896;SDS011;5501;51.176;6.470;2023-06-22T19:03:31;20.70;;;15.57;;
10896;SDS011;5501;51.176;6.470;2023-06-22T19:14:20;18.45;;;12.20;;
10896;SDS011;5501;51.176;6.470;2023-06-22T19:19:23;12.43;;;9.68;;
10896;SDS011;5501;51.176;6.470;2023-06-22T19:24:29;15.02;;;9.48;;
10896;SDS011;5501;51.176;6.470;2023-06-22T19:29:31;12.15;;;9.15;;
10896;SDS011;5501;51.176;6.470;2023-06-22T19:34:39;15.82;;;11.50;;
10896;SDS011;5501;51.176;6.470;2023-06-22T19:39:46;15.88;;;11.68;;
10896;SDS011;5501;51.176;6.470;2023-06-22T19:44:48;17.08;;;11.93;;
10896;SDS011;5501;51.176;6.470;2023-06-22T19:49:57;17.90;;;12.10;;
10896;SDS011;5501;51.176;6.470;2023-06-22T19:55:00;16.25;;;11.40;;
10896;SDS011;5501;51.176;6.470;2023-06-22T20:00:02;16.88;;;12.30;;
10896;SDS011;5501;51.176;6.470;2023-06-22T20:05:10;18.27;;;12.85;;
10896;SDS011;5501;51.176;6.470;2023-06-22T20:10:14;17.40;;;12.23;;
10896;SDS011;5501;51.176;6.470;2023-06-22T20:15:23;15.15;;;11.70;;
10896;SDS011;5501;51.176;6.470;2023-06-22T20:20:27;17.98;;;12.60;;
10896;SDS011;5501;51.176;6.470;2023-06-22T20:25:35;17.73;;;13.73;;
10896;SDS011;5501;51.176;6.470;2023-06-22T20:30:38;20.77;;;15.88;;
10896;SDS011;5501;51.176;6.470;2023-06-22T20:35:41;22.00;;;13.73;;
10896;SDS011;5501;51.176;6.470;2023-06-22T20:40:42;19.70;;;14.68;;
10896;SDS011;5501;51.176;6.470;2023-06-22T20:45:44;21.77;;;15.32;;
10896;SDS011;5501;51.176;6.470;2023-06-22T20:50:46;28.02;;;17.58;;
10896;SDS011;5501;51.176;6.470;2023-06-22T20:55:47;26.95;;;17.90;;
10896;SDS011;5501;51.176;6.470;2023-06-22T21:00:49;32.63;;;18.75;;
10896;SDS011;5501;51.176;6.470;2023-06-22T21:05:51;30.95;;;18.13;;
10896;SDS011;5501;51.176;6.470;2023-06-22T21:10:53;28.73;;;18.30;;
10896;SDS011;5501;51.176;6.470;2023-06-22T21:15:55;27.85;;;19.95;;
10896;SDS011;5501;51.176;6.470;2023-06-22T21:20:57;31.70;;;19.13;;
10896;SDS011;5501;51.176;6.470;2023-06-22T21:25:58;32.53;;;20.75;;
10896;SDS011;5501;51.176;6.470;2023-06-22T21:31:01;31.88;;;20.20;;
10896;SDS011;5501;51.176;6.470;2023-06-22T21:36:03;35.55;;;22.35;;
10896;SDS011;5501;51.176;6.470;2023-06-22T21:41:05;30.73;;;19.52;;
10896;SDS011;5501;51.176;6.470;2023-06-22T21:46:06;31.95;;;22.77;;
10896;SDS011;5501;51.176;6.470;2023-06-22T21:51:08;37.05;;;23.10;;
10896;SDS011;5501;51.176;6.470;2023-06-22T21:56:10;38.90;;;24.85;;
10896;SDS011;5501;51.176;6.470;2023-06-22T22:01:11;42.75;;;23.83;;
10896;SDS011;5501;51.176;6.470;2023-06-22T22:06:13;34.70;;;22.40;;
10896;SDS011;5501;51.176;6.470;2023-06-22T22:11:14;36.65;;;23.00;;
10896;SDS011;5501;51.176;6.470;2023-06-22T22:16:16;37.17;;;22.55;;
10896;SDS011;5501;51.176;6.470;2023-06-22T22:21:18;35.58;;;23.25;;
10896;SDS011;5501;51.176;6.470;2023-06-22T22:26:20;33.25;;;21.17;;
10896;SDS011;5501;51.176;6.470;2023-06-22T22:31:21;32.63;;;22.45;;
10896;SDS011;5501;51.176;6.470;2023-06-22T22:36:23;32.47;;;20.67;;
10896;SDS011;5501;51.176;6.470;2023-06-22T22:41:24;25.33;;;16.88;;
10896;SDS011;5501;51.176;6.470;2023-06-22T22:46:26;27.75;;;16.13;;
10896;SDS011;5501;51.176;6.470;2023-06-22T22:51:28;23.65;;;15.18;;
10896;SDS011;5501;51.176;6.470;2023-06-22T22:56:29;22.15;;;13.48;;
10896;SDS011;5501;51.176;6.470;2023-06-22T23:01:31;21.10;;;12.52;;
10896;SDS011;5501;51.176;6.470;2023-06-22T23:06:34;17.58;;;12.35;;
10896;SDS011;5501;51.176;6.470;2023-06-22T23:11:38;15.70;;;11.05;;
10896;SDS011;5501;51.176;6.470;2023-06-22T23:16:39;15.73;;;10.15;;
10896;SDS011;5501;51.176;6.470;2023-06-22T23:21:41;16.30;;;9.35;;
10896;SDS011;5501;51.176;6.470;2023-06-22T23:26:42;11.45;;;8.25;;
10896;SDS011;5501;51.176;6.470;2023-06-22T23:31:45;12.07;;;8.80;;
10896;SDS011;5501;51.176;6.470;2023-06-22T23:36:46;12.75;;;8.68;;
10896;SDS011;5501;51.176;6.470;2023-06-22T23:41:48;15.05;;;8.65;;
10896;SDS011;5501;51.176;6.470;2023-06-22T23:46:50;13.65;;;8.65;;
10896;SDS011;5501;51.176;6.470;2023-06-22T23:51:51;14.25;;;8.18;;
10896;SDS011;5501;51.176;6.470;2023-06-22T23:56:53;12.20;;;7.90;;
